createdAt,value
2023-10-26T00:01:08.969Z,294.83
2023-10-26T00:04:16.171Z,289.17
2023-10-26T00:07:24.142Z,283.77
2023-10-26T00:10:31.581Z,284.05
2023-10-26T00:13:42.201Z,274.78
2023-10-26T00:16:49.829Z,271.82
2023-10-26T00:19:59.346Z,262.17
2023-10-26T00:23:08.582Z,258.73
2023-10-26T00:26:16.712Z,260.96
2023-10-26T00:29:31.399Z,257.53
2023-10-26T00:32:39.664Z,255.10
2023-10-26T00:35:46.833Z,248.90
2023-10-26T00:38:54.902Z,243.68
2023-10-26T00:42:02.633Z,240.73
2023-10-26T00:45:14.171Z,237.87
2023-10-26T00:48:23.719Z,220.72
2023-10-26T00:51:32.977Z,223.34
2023-10-26T00:54:45.593Z,218.48
2023-10-26T00:57:54.274Z,212.82
2023-10-26T01:01:05.364Z,218.49
2023-10-26T01:04:25.205Z,219.73
2023-10-26T01:07:32.311Z,229.54
2023-10-26T01:10:41.414Z,225.62
2023-10-26T01:13:48.664Z,236.55
2023-10-26T01:17:05.498Z,245.91
2023-10-26T01:20:23.506Z,244.66
2023-10-26T01:23:34.706Z,236.52
2023-10-26T01:26:41.971Z,242.41
2023-10-26T01:29:50.029Z,250.30
2023-10-26T01:32:57.288Z,246.75
2023-10-26T01:36:05.426Z,247.34
2023-10-26T01:39:16.040Z,246.14
2023-10-26T01:42:24.087Z,244.14
2023-10-26T01:45:31.402Z,246.42
2023-10-26T01:48:39.787Z,249.96
2023-10-26T01:51:46.923Z,244.93
2023-10-26T01:54:57.612Z,250.54
2023-10-26T01:58:05.431Z,245.52
2023-10-26T02:01:13.593Z,248.89
2023-10-26T02:04:20.820Z,251.66
2023-10-26T02:07:28.980Z,247.34
2023-10-26T02:10:39.574Z,244.21
2023-10-26T02:13:57.337Z,248.30
2023-10-26T02:17:05.396Z,244.89
2023-10-26T02:20:15.475Z,241.71
2023-10-26T02:23:22.765Z,246.63
2023-10-26T02:26:33.484Z,245.15
2023-10-26T02:29:41.159Z,232.22
2023-10-26T02:32:49.296Z,239.27
2023-10-26T02:35:56.587Z,222.55
2023-10-26T02:39:05.378Z,222.82
2023-10-26T02:42:16.388Z,224.18
2023-10-26T02:45:26.825Z,238.33
2023-10-26T02:48:34.264Z,236.20
2023-10-26T02:51:42.378Z,239.58
2023-10-26T02:54:50.751Z,246.29
2023-10-26T02:58:01.486Z,254.51
2023-10-26T03:01:08.807Z,262.53
2023-10-26T03:04:17.021Z,263.59
2023-10-26T03:07:25.382Z,260.59
2023-10-26T03:10:33.409Z,262.93
2023-10-26T03:13:44.019Z,253.40
2023-10-26T03:16:52.338Z,259.52
2023-10-26T03:19:59.824Z,274.66
2023-10-26T03:23:08.955Z,270.49
2023-10-26T03:26:16.268Z,269.26
2023-10-26T03:29:26.885Z,259.24
2023-10-26T03:32:46.540Z,263.13
2023-10-26T03:35:54.532Z,265.39
2023-10-26T03:39:02.601Z,259.44
2023-10-26T03:42:24.894Z,261.22
2023-10-26T03:45:34.953Z,263.98
2023-10-26T03:48:43.041Z,253.18
2023-10-26T03:51:50.944Z,258.72
2023-10-26T03:55:02.705Z,262.45
2023-10-26T03:58:09.898Z,262.11
2023-10-26T04:01:20.407Z,254.03
2023-10-26T04:04:27.610Z,265.48
2023-10-26T04:07:35.658Z,230.89
2023-10-26T04:10:42.829Z,214.18
2023-10-26T04:13:51.071Z,193.21
2023-10-26T04:17:00.907Z,199.38
2023-10-26T04:20:12.140Z,212.52
2023-10-26T04:23:19.729Z,224.35
2023-10-26T04:26:27.774Z,231.18
2023-10-26T04:29:35.118Z,245.32
2023-10-26T04:32:46.161Z,255.66
2023-10-26T04:35:53.702Z,259.83
2023-10-26T04:39:02.659Z,239.44
2023-10-26T04:42:10.120Z,249.72
2023-10-26T04:45:18.441Z,234.74
2023-10-26T04:48:28.424Z,235.69
2023-10-26T04:51:36.560Z,240.91
2023-10-26T04:54:43.958Z,247.83
2023-10-26T04:57:52.033Z,234.24
2023-10-26T05:01:01.356Z,244.37
2023-10-26T05:04:12.131Z,233.97
2023-10-26T05:07:19.236Z,233.61
2023-10-26T05:10:31.873Z,267.75
2023-10-26T05:13:39.344Z,245.79
2023-10-26T05:16:47.464Z,245.41
2023-10-26T05:19:57.296Z,250.37
2023-10-26T05:23:07.187Z,252.53
2023-10-26T05:26:14.680Z,233.46
2023-10-26T05:29:22.735Z,225.95
2023-10-26T05:32:30.534Z,215.13
2023-10-26T05:35:41.275Z,204.67
2023-10-26T05:38:48.600Z,191.75
2023-10-26T05:41:56.715Z,195.50
2023-10-26T05:45:04.284Z,198.87
2023-10-26T05:48:12.759Z,201.84
2023-10-26T05:51:22.685Z,202.61
2023-10-26T05:54:31.108Z,213.65
2023-10-26T05:57:38.401Z,206.29
2023-10-26T06:00:46.396Z,202.77
2023-10-26T06:03:56.706Z,193.77
2023-10-26T06:07:07.955Z,189.98
2023-10-26T06:10:15.259Z,191.30
2023-10-26T06:13:23.438Z,199.68
2023-10-26T06:16:31.753Z,203.79
2023-10-26T06:19:44.487Z,200.68
2023-10-26T06:23:00.430Z,200.99
2023-10-26T06:26:11.066Z,208.44
2023-10-26T06:29:18.345Z,205.83
2023-10-26T06:32:26.401Z,200.51
2023-10-26T06:35:33.869Z,201.83
2023-10-26T06:38:45.439Z,211.51
2023-10-26T06:41:52.749Z,208.88
2023-10-26T06:45:04.390Z,189.16
2023-10-26T06:48:13.123Z,174.13
2023-10-26T06:51:23.944Z,161.07
2023-10-26T06:54:33.768Z,155.69
2023-10-26T06:57:41.940Z,149.57
2023-10-26T07:00:50.116Z,139.41
2023-10-26T07:04:05.976Z,129.64
2023-10-26T07:07:13.301Z,119.00
2023-10-26T07:10:24.183Z,107.27
2023-10-26T07:13:31.845Z,103.44
2023-10-26T07:16:39.943Z,85.69
2023-10-26T07:19:47.203Z,71.19
2023-10-26T07:22:55.185Z,62.19
2023-10-26T07:26:05.565Z,57.45
2023-10-26T07:29:13.459Z,51.57
2023-10-26T07:32:27.480Z,52.59
2023-10-26T07:35:41.958Z,49.42
2023-10-26T07:39:43.647Z,41.76
2023-10-26T07:42:20.394Z,38.77
2023-10-26T07:45:29.485Z,42.72
2023-10-26T07:48:38.271Z,47.28
2023-10-26T07:51:45.448Z,36.55
2023-10-26T07:54:53.553Z,37.33
2023-10-26T07:58:03.471Z,36.25
2023-10-26T08:01:13.936Z,34.90
2023-10-26T08:04:21.199Z,33.23
2023-10-26T08:07:29.292Z,29.63
2023-10-26T08:10:38.639Z,31.80
2023-10-26T08:13:49.811Z,33.65
2023-10-26T08:17:01.202Z,36.17
2023-10-26T08:20:11.383Z,37.70
2023-10-26T08:23:18.940Z,40.89
2023-10-26T08:26:26.865Z,31.73
2023-10-26T08:29:36.632Z,30.54
2023-10-26T08:32:45.223Z,29.01
2023-10-26T08:35:53.782Z,23.79
2023-10-26T08:39:05.653Z,24.19
2023-10-26T08:42:14.550Z,21.57
2023-10-26T08:45:29.548Z,20.44
2023-10-26T08:48:41.304Z,20.10
2023-10-26T08:51:49.519Z,18.30
2023-10-26T08:54:57.398Z,18.36
2023-10-26T08:58:06.079Z,25.53
2023-10-26T09:01:16.514Z,24.11
2023-10-26T09:04:24.674Z,25.80
2023-10-26T09:07:32.171Z,23.65
2023-10-26T09:10:40.738Z,24.46
2023-10-26T09:13:48.789Z,25.37
2023-10-26T09:17:01.529Z,27.92
2023-10-26T09:20:22.788Z,23.57
2023-10-26T09:23:32.341Z,20.69
2023-10-26T09:26:43.768Z,20.80
2023-10-26T09:29:51.689Z,22.06
2023-10-26T09:33:02.653Z,18.54
2023-10-26T09:36:16.930Z,20.26
2023-10-26T09:39:24.324Z,20.11
2023-10-26T09:42:32.450Z,18.78
2023-10-26T09:45:40.079Z,16.78
2023-10-26T09:48:53.152Z,16.95
2023-10-26T09:52:00.550Z,16.59
2023-10-26T09:55:14.190Z,19.07
2023-10-26T09:58:23.976Z,19.70
2023-10-26T10:01:38.723Z,19.56
2023-10-26T10:04:50.079Z,21.20
2023-10-26T10:07:58.046Z,27.64
2023-10-26T10:11:21.669Z,24.83
2023-10-26T10:15:22.270Z,22.72
2023-10-26T10:18:29.927Z,24.32
2023-10-26T10:21:41.221Z,19.63
2023-10-26T10:24:57.628Z,20.33
2023-10-26T10:28:15.771Z,22.21
2023-10-26T10:31:42.952Z,23.75
2023-10-26T10:34:55.027Z,28.60
2023-10-26T10:38:28.127Z,28.66
2023-10-26T10:41:40.476Z,34.30
2023-10-26T10:44:49.090Z,29.08
2023-10-26T10:47:57.003Z,25.70
2023-10-26T10:51:04.444Z,21.95
2023-10-26T10:54:26.941Z,23.19
2023-10-26T10:57:37.906Z,23.43
2023-10-26T11:00:50.372Z,23.16
2023-10-26T11:04:11.591Z,25.95
2023-10-26T11:07:21.320Z,33.26
2023-10-26T11:10:32.443Z,32.08
2023-10-26T11:13:40.472Z,23.12
2023-10-26T11:16:48.263Z,21.26
2023-10-26T11:19:57.718Z,23.94
2023-10-26T11:23:05.392Z,25.43
2023-10-26T11:26:21.809Z,35.41
2023-10-26T11:29:37.292Z,30.72
2023-10-26T11:32:48.481Z,22.12
2023-10-26T11:35:55.796Z,34.64
2023-10-26T11:39:03.879Z,45.84
2023-10-26T11:42:13.973Z,39.93
2023-10-26T11:45:27.354Z,34.05
2023-10-26T11:48:35.339Z,27.58
2023-10-26T11:51:47.528Z,28.87
2023-10-26T11:55:02.599Z,25.22
2023-10-26T11:58:16.268Z,29.95
2023-10-26T12:01:23.489Z,28.54
2023-10-26T12:04:31.511Z,21.85
2023-10-26T12:07:39.028Z,19.85
2023-10-26T12:10:48.728Z,26.09
2023-10-26T12:13:58.503Z,38.62
2023-10-26T12:17:15.009Z,36.97
2023-10-26T12:20:22.804Z,23.24
2023-10-26T12:23:30.903Z,23.63
2023-10-26T12:26:40.037Z,17.70
2023-10-26T12:29:51.562Z,19.65
2023-10-26T12:32:58.750Z,21.53
2023-10-26T12:36:24.322Z,40.31
2023-10-26T12:39:31.529Z,36.60
2023-10-26T12:42:40.958Z,50.61
2023-10-26T12:45:51.060Z,42.71
2023-10-26T12:48:59.191Z,43.51
2023-10-26T12:52:06.872Z,30.15
2023-10-26T12:55:14.950Z,31.71
2023-10-26T12:58:34.046Z,44.33
2023-10-26T13:01:50.710Z,45.10
2023-10-26T13:04:57.912Z,47.26
2023-10-26T13:08:06.678Z,44.72
2023-10-26T13:11:14.246Z,38.20
2023-10-26T13:14:22.348Z,36.14
2023-10-26T13:17:32.396Z,32.32
2023-10-26T13:20:40.712Z,25.74
2023-10-26T13:23:48.383Z,23.09
2023-10-26T13:26:56.932Z,25.00
2023-10-26T13:30:05.410Z,24.42
2023-10-26T13:33:16.040Z,30.16
2023-10-26T13:36:23.222Z,31.82
2023-10-26T13:39:31.597Z,33.38
2023-10-26T13:42:38.968Z,39.70
2023-10-26T13:45:48.190Z,34.80
2023-10-26T13:48:58.160Z,25.47
2023-10-26T13:52:06.984Z,25.65
2023-10-26T13:55:14.598Z,25.66
2023-10-26T13:58:22.670Z,27.85
2023-10-26T14:01:30.425Z,25.65
2023-10-26T14:04:41.154Z,28.05
2023-10-26T14:07:48.536Z,25.96
2023-10-26T14:10:56.714Z,27.11
2023-10-26T14:14:05.312Z,31.58
2023-10-26T14:17:13.451Z,27.13
2023-10-26T14:20:23.451Z,28.34
2023-10-26T14:23:31.459Z,30.51
2023-10-26T14:26:38.505Z,29.01
2023-10-26T14:29:46.436Z,32.06
2023-10-26T14:32:53.761Z,32.35
2023-10-26T14:36:06.601Z,34.22
2023-10-26T14:39:13.721Z,34.18
2023-10-26T14:42:21.768Z,40.21
2023-10-26T14:45:30.008Z,41.68
2023-10-26T14:48:38.055Z,41.61
2023-10-26T14:51:48.771Z,38.59
2023-10-26T14:54:56.730Z,32.76
2023-10-26T14:58:03.948Z,31.39
2023-10-26T15:01:15.294Z,30.94
2023-10-26T15:04:22.597Z,32.31
2023-10-26T15:07:35.030Z,33.54
2023-10-26T15:10:48.131Z,30.40
2023-10-26T15:13:57.913Z,35.79
2023-10-26T15:17:05.404Z,40.65
2023-10-26T15:20:14.304Z,40.16
2023-10-26T15:23:33.384Z,37.74
2023-10-26T15:26:41.337Z,33.14
2023-10-26T15:29:48.735Z,35.78
2023-10-26T15:32:56.908Z,35.71
2023-10-26T15:36:05.029Z,42.94
2023-10-26T15:39:17.386Z,49.18
2023-10-26T15:42:25.159Z,52.84
2023-10-26T15:45:33.339Z,47.59
2023-10-26T15:49:31.880Z,51.45
2023-10-26T15:52:09.901Z,68.51
2023-10-26T15:55:22.165Z,114.37
2023-10-26T15:58:31.036Z,63.45
2023-10-26T16:01:38.336Z,53.72
2023-10-26T16:04:46.653Z,74.90
2023-10-26T16:07:54.437Z,59.95
2023-10-26T16:11:05.516Z,64.18
2023-10-26T16:14:12.961Z,74.92
2023-10-26T16:17:21.179Z,95.16
2023-10-26T16:20:29.191Z,87.56
2023-10-26T16:23:37.494Z,87.67
2023-10-26T16:26:48.512Z,78.14
2023-10-26T16:29:57.475Z,58.23
2023-10-26T16:33:05.498Z,55.15
2023-10-26T16:36:13.660Z,52.27
2023-10-26T16:39:21.311Z,46.74
2023-10-26T16:42:32.025Z,53.03
2023-10-26T16:45:45.428Z,54.07
2023-10-26T16:48:53.876Z,73.34
2023-10-26T16:52:14.234Z,75.70
2023-10-26T16:55:22.565Z,73.70
2023-10-26T16:58:33.021Z,63.16
2023-10-26T17:01:44.627Z,54.66
2023-10-26T17:04:56.822Z,55.62
2023-10-26T17:08:15.914Z,57.33
2023-10-26T17:11:24.873Z,59.93
2023-10-26T17:14:42.801Z,72.52
2023-10-26T17:17:51.072Z,77.65
2023-10-26T17:21:02.923Z,75.97
2023-10-26T17:24:12.601Z,71.42
2023-10-26T17:27:21.721Z,69.81
2023-10-26T17:30:33.278Z,85.27
2023-10-26T17:33:43.035Z,113.29
2023-10-26T17:37:10.878Z,114.38
2023-10-26T17:40:20.745Z,97.26
2023-10-26T17:43:28.392Z,88.07
2023-10-26T17:46:39.743Z,81.06
2023-10-26T17:49:47.406Z,74.36
2023-10-26T17:53:16.979Z,79.25
2023-10-26T17:56:36.466Z,84.56
2023-10-26T18:00:01.665Z,87.26
2023-10-26T18:03:29.887Z,112.56
2023-10-26T18:06:38.067Z,110.66
2023-10-26T18:09:45.703Z,113.80
2023-10-26T18:12:54.205Z,126.88
2023-10-26T18:16:09.324Z,124.22
2023-10-26T18:19:20.240Z,124.35
2023-10-26T18:22:27.493Z,118.84
2023-10-26T18:25:35.469Z,108.44
2023-10-26T18:28:46.073Z,101.68
2023-10-26T18:31:55.003Z,99.77
2023-10-26T18:35:06.893Z,94.14
2023-10-26T18:38:14.991Z,96.11
2023-10-26T18:41:25.377Z,95.21
2023-10-26T18:44:33.423Z,93.51
2023-10-26T18:47:40.730Z,80.39
2023-10-26T18:50:54.110Z,82.31
2023-10-26T18:54:01.284Z,88.97
2023-10-26T18:57:09.449Z,95.14
2023-10-26T19:00:18.344Z,99.22
2023-10-26T19:03:28.078Z,113.62
2023-10-26T19:06:41.053Z,120.87
2023-10-26T19:09:49.510Z,126.60
2023-10-26T19:12:57.400Z,129.64
2023-10-26T19:16:08.019Z,108.19
2023-10-26T19:19:15.581Z,106.26
2023-10-26T19:22:26.327Z,103.44
2023-10-26T19:25:34.402Z,106.55
2023-10-26T19:28:42.529Z,111.66
2023-10-26T19:31:49.746Z,111.88
2023-10-26T19:34:58.535Z,112.55
2023-10-26T19:38:09.181Z,109.14
2023-10-26T19:41:18.972Z,112.05
2023-10-26T19:44:26.469Z,99.66
2023-10-26T19:47:35.714Z,95.35
2023-10-26T19:50:42.979Z,101.95
2023-10-26T19:53:53.645Z,125.36
2023-10-26T19:57:00.798Z,157.77
2023-10-26T20:00:15.144Z,127.16
2023-10-26T20:03:24.174Z,114.32
2023-10-26T20:06:32.265Z,98.74
2023-10-26T20:09:43.225Z,96.48
2023-10-26T20:12:51.405Z,98.89
2023-10-26T20:16:00.618Z,99.44
2023-10-26T20:19:09.241Z,99.63
2023-10-26T20:22:16.626Z,90.16
2023-10-26T20:25:27.285Z,95.47
2023-10-26T20:28:34.487Z,101.62
2023-10-26T20:31:43.156Z,106.21
2023-10-26T20:34:50.373Z,111.36
2023-10-26T20:37:58.386Z,109.97
2023-10-26T20:41:10.735Z,113.28
2023-10-26T20:44:18.909Z,111.98
2023-10-26T20:47:26.321Z,110.01
2023-10-26T20:50:35.418Z,102.06
2023-10-26T20:53:44.118Z,99.46
2023-10-26T20:56:54.772Z,101.93
2023-10-26T21:00:02.587Z,114.19
2023-10-26T21:03:10.776Z,125.05
2023-10-26T21:06:18.158Z,142.36
2023-10-26T21:09:26.854Z,150.14
2023-10-26T21:12:36.716Z,144.95
2023-10-26T21:15:44.861Z,145.80
2023-10-26T21:18:53.615Z,143.24
2023-10-26T21:22:03.682Z,132.61
2023-10-26T21:25:29.766Z,140.02
2023-10-26T21:28:43.267Z,134.99
2023-10-26T21:31:50.713Z,97.38
2023-10-26T21:34:58.692Z,74.93
2023-10-26T21:38:07.976Z,70.66
2023-10-26T21:41:16.035Z,66.27
2023-10-26T21:44:25.855Z,71.14
2023-10-26T21:47:38.922Z,71.50
2023-10-26T21:50:46.201Z,73.58
2023-10-26T21:53:54.249Z,71.20
2023-10-26T21:57:01.390Z,71.56
2023-10-26T22:00:23.809Z,68.58
2023-10-26T22:03:38.731Z,64.97
2023-10-26T22:06:50.834Z,60.64
2023-10-26T22:09:58.534Z,65.65
2023-10-26T22:13:11.174Z,62.72
2023-10-26T22:16:34.748Z,65.42
2023-10-26T22:19:43.151Z,70.73
2023-10-26T22:22:53.387Z,73.13
2023-10-26T22:26:02.536Z,76.63
2023-10-26T22:29:27.142Z,76.34
2023-10-26T22:32:40.774Z,78.53
2023-10-26T22:35:48.059Z,81.60
2023-10-26T22:38:57.273Z,83.36
2023-10-26T22:42:05.437Z,92.49
2023-10-26T22:45:14.878Z,97.71
2023-10-26T22:48:25.361Z,102.73
2023-10-26T22:51:34.031Z,97.62
2023-10-26T22:54:49.482Z,100.79
2023-10-26T22:57:57.551Z,102.03
2023-10-26T23:01:17.739Z,117.88
2023-10-26T23:04:34.847Z,112.09
2023-10-26T23:07:43.458Z,112.53
2023-10-26T23:10:51.501Z,109.34
2023-10-26T23:14:03.455Z,100.75
2023-10-26T23:17:11.535Z,106.07
2023-10-26T23:20:21.653Z,113.48
2023-10-26T23:23:29.608Z,115.70
2023-10-26T23:26:37.001Z,125.25
2023-10-26T23:29:45.127Z,136.72
2023-10-26T23:32:54.646Z,124.16
2023-10-26T23:36:08.106Z,103.23
2023-10-26T23:39:15.313Z,99.51
2023-10-26T23:42:23.972Z,111.40
2023-10-26T23:45:32.305Z,96.18
2023-10-26T23:48:40.517Z,90.10
2023-10-26T23:51:50.426Z,81.02
2023-10-26T23:54:58.502Z,78.00
2023-10-26T23:58:06.392Z,80.45
